sensor_id;sensor_type;location;lat;lon;timestamp;temperature;humidity
71529;SHT31;59350;51.520;5.988;2022-07-04T04:16:14;12.71;82.84
71529;SHT31;59350;51.520;5.988;2022-07-04T04:18:39;12.72;82.76
71529;SHT31;59350;51.520;5.988;2022-07-04T04:21:04;12.82;82.51
71529;SHT31;59350;51.520;5.988;2022-07-04T04:23:30;12.84;82.40
71529;SHT31;59350;51.520;5.988;2022-07-04T04:25:56;13.18;81.88
71529;SHT31;59350;51.520;5.988;2022-07-04T04:28:21;13.66;80.29
71529;SHT31;59350;51.520;5.988;2022-07-04T04:30:47;14.00;78.78
71529;SHT31;59350;51.520;5.988;2022-07-04T04:33:12;14.00;77.90
71529;SHT31;59350;51.520;5.988;2022-07-04T04:35:38;14.05;78.27
71529;SHT31;59350;51.520;5.988;2022-07-04T04:38:03;14.45;77.34
71529;SHT31;59350;51.520;5.988;2022-07-04T04:40:28;14.86;75.97
71529;SHT31;59350;51.520;5.988;2022-07-04T04:42:55;14.87;75.28
71529;SHT31;59350;51.520;5.988;2022-07-04T04:45:20;14.66;75.85
71529;SHT31;59350;51.520;5.988;2022-07-04T04:47:46;14.45;76.57
71529;SHT31;59350;51.520;5.988;2022-07-04T04:50:11;14.26;77.42
71529;SHT31;59350;51.520;5.988;2022-07-04T04:52:38;14.11;78.31
71529;SHT31;59350;51.520;5.988;2022-07-04T04:55:04;13.98;78.93
71529;SHT31;59350;51.520;5.988;2022-07-04T04:57:29;13.90;79.64
71529;SHT31;59350;51.520;5.988;2022-07-04T04:59:54;13.82;80.08
71529;SHT31;59350;51.520;5.988;2022-07-04T05:02:20;13.84;80.38
71529;SHT31;59350;51.520;5.988;2022-07-04T05:04:45;13.85;80.27
71529;SHT31;59350;51.520;5.988;2022-07-04T05:07:11;13.90;80.40
71529;SHT31;59350;51.520;5.988;2022-07-04T05:09:36;13.90;80.41
71529;SHT31;59350;51.520;5.988;2022-07-04T05:12:02;14.02;79.99
71529;SHT31;59350;51.520;5.988;2022-07-04T05:14:27;14.10;79.76
71529;SHT31;59350;51.520;5.988;2022-07-04T05:16:53;14.12;79.68
71529;SHT31;59350;51.520;5.988;2022-07-04T05:19:19;14.18;79.43
71529;SHT31;59350;51.520;5.988;2022-07-04T05:21:44;14.24;79.79
71529;SHT31;59350;51.520;5.988;2022-07-04T05:24:09;14.28;79.53
71529;SHT31;59350;51.520;5.988;2022-07-04T05:26:36;14.41;79.30
71529;SHT31;59350;51.520;5.988;2022-07-04T05:29:01;14.70;78.71
71529;SHT31;59350;51.520;5.988;2022-07-04T05:31:27;14.69;78.42
71529;SHT31;59350;51.520;5.988;2022-07-04T05:33:53;14.65;78.53
71529;SHT31;59350;51.520;5.988;2022-07-04T05:36:20;14.68;78.55
71529;SHT31;59350;51.520;5.988;2022-07-04T05:38:45;14.73;78.19
71529;SHT31;59350;51.520;5.988;2022-07-04T05:41:10;14.77;77.84
71529;SHT31;59350;51.520;5.988;2022-07-04T05:43:36;14.81;77.18
71529;SHT31;59350;51.520;5.988;2022-07-04T05:46:01;14.87;77.09
71529;SHT31;59350;51.520;5.988;2022-07-04T05:48:26;14.89;77.15
71529;SHT31;59350;51.520;5.988;2022-07-04T05:50:52;14.97;76.80
71529;SHT31;59350;51.520;5.988;2022-07-04T05:53:17;15.06;76.79
71529;SHT31;59350;51.520;5.988;2022-07-04T05:55:43;15.12;76.45
71529;SHT31;59350;51.520;5.988;2022-07-04T05:58:09;15.20;76.34
71529;SHT31;59350;51.520;5.988;2022-07-04T06:00:34;15.32;75.82
71529;SHT31;59350;51.520;5.988;2022-07-04T06:03:00;15.47;75.48
71529;SHT31;59350;51.520;5.988;2022-07-04T06:05:25;15.47;75.70
71529;SHT31;59350;51.520;5.988;2022-07-04T06:07:51;15.49;75.85
71529;SHT31;59350;51.520;5.988;2022-07-04T06:10:16;15.66;75.57
71529;SHT31;59350;51.520;5.988;2022-07-04T06:12:42;15.70;75.23
71529;SHT31;59350;51.520;5.988;2022-07-04T06:15:08;15.77;75.24
71529;SHT31;59350;51.520;5.988;2022-07-04T06:17:35;15.82;74.80
71529;SHT31;59350;51.520;5.988;2022-07-04T06:20:00;15.89;74.77
71529;SHT31;59350;51.520;5.988;2022-07-04T06:22:26;15.99;74.70
71529;SHT31;59350;51.520;5.988;2022-07-04T06:24:51;16.02;75.10
71529;SHT31;59350;51.520;5.988;2022-07-04T06:27:17;16.16;74.79
71529;SHT31;59350;51.520;5.988;2022-07-04T06:29:42;16.20;74.73
71529;SHT31;59350;51.520;5.988;2022-07-04T06:32:07;16.27;74.54
71529;SHT31;59350;51.520;5.988;2022-07-04T06:34:33;16.30;74.82
71529;SHT31;59350;51.520;5.988;2022-07-04T06:37:16;16.43;75.10
71529;SHT31;59350;51.520;5.988;2022-07-04T06:39:42;16.51;74.90
71529;SHT31;59350;51.520;5.988;2022-07-04T06:42:08;16.65;74.16
71529;SHT31;59350;51.520;5.988;2022-07-04T06:44:33;16.74;73.88
71529;SHT31;59350;51.520;5.988;2022-07-04T06:46:58;16.85;73.48
71529;SHT31;59350;51.520;5.988;2022-07-04T06:49:24;17.02;72.68
71529;SHT31;59350;51.520;5.988;2022-07-04T06:51:49;17.28;72.46
71529;SHT31;59350;51.520;5.988;2022-07-04T06:54:14;17.87;70.23
71529;SHT31;59350;51.520;5.988;2022-07-04T06:56:40;19.23;66.79
71529;SHT31;59350;51.520;5.988;2022-07-04T06:59:06;20.92;61.47
71529;SHT31;59350;51.520;5.988;2022-07-04T07:01:31;22.13;56.82
71529;SHT31;59350;51.520;5.988;2022-07-04T07:03:57;23.17;53.22
71529;SHT31;59350;51.520;5.988;2022-07-04T07:06:22;24.26;50.48
71529;SHT31;59350;51.520;5.988;2022-07-04T07:08:49;25.06;48.12
71529;SHT31;59350;51.520;5.988;2022-07-04T07:11:14;25.27;46.80
71529;SHT31;59350;51.520;5.988;2022-07-04T07:13:43;25.76;45.16
71529;SHT31;59350;51.520;5.988;2022-07-04T07:16:10;26.21;44.70
71529;SHT31;59350;51.520;5.988;2022-07-04T07:18:35;26.54;43.60
71529;SHT31;59350;51.520;5.988;2022-07-04T07:21:01;26.75;42.68
71529;SHT31;59350;51.520;5.988;2022-07-04T07:23:26;26.95;42.78
71529;SHT31;59350;51.520;5.988;2022-07-04T07:25:52;27.58;41.24
71529;SHT31;59350;51.520;5.988;2022-07-04T07:28:17;27.94;39.83
71529;SHT31;59350;51.520;5.988;2022-07-04T07:30:43;27.98;39.27
71529;SHT31;59350;51.520;5.988;2022-07-04T07:33:09;28.29;39.46
71529;SHT31;59350;51.520;5.988;2022-07-04T07:35:34;28.83;38.71
71529;SHT31;59350;51.520;5.988;2022-07-04T07:38:00;29.47;38.24
71529;SHT31;59350;51.520;5.988;2022-07-04T07:40:25;29.76;36.52
71529;SHT31;59350;51.520;5.988;2022-07-04T07:42:50;30.09;36.54
71529;SHT31;59350;51.520;5.988;2022-07-04T07:45:16;29.88;36.18
71529;SHT31;59350;51.520;5.988;2022-07-04T07:47:41;30.05;36.38
71529;SHT31;59350;51.520;5.988;2022-07-04T07:50:07;30.13;36.85
71529;SHT31;59350;51.520;5.988;2022-07-04T07:52:33;29.99;36.43
71529;SHT31;59350;51.520;5.988;2022-07-04T07:54:58;29.81;36.50
71529;SHT31;59350;51.520;5.988;2022-07-04T07:57:24;30.29;36.40
71529;SHT31;59350;51.520;5.988;2022-07-04T07:59:49;30.29;35.81
71529;SHT31;59350;51.520;5.988;2022-07-04T08:02:15;30.17;36.14
71529;SHT31;59350;51.520;5.988;2022-07-04T08:04:40;30.26;35.94
71529;SHT31;59350;51.520;5.988;2022-07-04T08:07:11;30.27;35.73
71529;SHT31;59350;51.520;5.988;2022-07-04T08:09:39;29.98;35.53
71529;SHT31;59350;51.520;5.988;2022-07-04T08:12:05;29.62;35.89
71529;SHT31;59350;51.520;5.988;2022-07-04T08:14:32;29.95;36.28
71529;SHT31;59350;51.520;5.988;2022-07-04T08:16:58;30.24;35.38
71529;SHT31;59350;51.520;5.988;2022-07-04T08:19:24;30.17;35.23
71529;SHT31;59350;51.520;5.988;2022-07-04T08:21:51;30.09;35.32
71529;SHT31;59350;51.520;5.988;2022-07-04T08:24:16;29.85;35.66
71529;SHT31;59350;51.520;5.988;2022-07-04T08:26:42;29.71;35.54
71529;SHT31;59350;51.520;5.988;2022-07-04T08:29:08;30.30;34.80
71529;SHT31;59350;51.520;5.988;2022-07-04T08:31:33;30.64;33.86
71529;SHT31;59350;51.520;5.988;2022-07-04T08:33:59;30.75;33.61
71529;SHT31;59350;51.520;5.988;2022-07-04T08:36:24;31.26;33.94
71529;SHT31;59350;51.520;5.988;2022-07-04T08:38:49;31.42;33.74
71529;SHT31;59350;51.520;5.988;2022-07-04T08:41:16;31.33;33.53
71529;SHT31;59350;51.520;5.988;2022-07-04T08:43:42;31.58;33.77
71529;SHT31;59350;51.520;5.988;2022-07-04T08:46:09;31.23;33.93
71529;SHT31;59350;51.520;5.988;2022-07-04T08:48:37;31.36;33.08
71529;SHT31;59350;51.520;5.988;2022-07-04T08:51:13;31.62;33.81
71529;SHT31;59350;51.520;5.988;2022-07-04T08:53:42;31.22;32.95
71529;SHT31;59350;51.520;5.988;2022-07-04T08:56:09;31.62;32.84
71529;SHT31;59350;51.520;5.988;2022-07-04T08:58:55;31.66;31.88
71529;SHT31;59350;51.520;5.988;2022-07-04T09:01:20;31.90;33.32
71529;SHT31;59350;51.520;5.988;2022-07-04T09:03:45;32.11;32.16
71529;SHT31;59350;51.520;5.988;2022-07-04T09:06:11;32.34;31.77
71529;SHT31;59350;51.520;5.988;2022-07-04T09:08:38;33.02;30.86
71529;SHT31;59350;51.520;5.988;2022-07-04T09:11:04;31.59;32.21
71529;SHT31;59350;51.520;5.988;2022-07-04T09:13:30;30.10;34.35
71529;SHT31;59350;51.520;5.988;2022-07-04T09:15:56;30.08;35.08
71529;SHT31;59350;51.520;5.988;2022-07-04T09:18:28;29.98;36.21
71529;SHT31;59350;51.520;5.988;2022-07-04T09:20:56;30.37;34.95
71529;SHT31;59350;51.520;5.988;2022-07-04T09:26:19;31.05;33.74
71529;SHT31;59350;51.520;5.988;2022-07-04T09:28:52;31.32;33.11
71529;SHT31;59350;51.520;5.988;2022-07-04T09:31:20;31.74;33.47
71529;SHT31;59350;51.520;5.988;2022-07-04T09:33:47;32.11;32.22
71529;SHT31;59350;51.520;5.988;2022-07-04T09:36:16;31.46;32.78
71529;SHT31;59350;51.520;5.988;2022-07-04T09:38:43;30.03;32.82
71529;SHT31;59350;51.520;5.988;2022-07-04T09:41:08;28.46;35.52
71529;SHT31;59350;51.520;5.988;2022-07-04T09:44:04;28.53;35.40
71529;SHT31;59350;51.520;5.988;2022-07-04T09:46:31;28.79;35.42
71529;SHT31;59350;51.520;5.988;2022-07-04T09:48:57;29.41;34.91
71529;SHT31;59350;51.520;5.988;2022-07-04T09:54:18;29.47;34.66
71529;SHT31;59350;51.520;5.988;2022-07-04T09:56:47;30.10;35.79
71529;SHT31;59350;51.520;5.988;2022-07-04T09:59:12;29.52;36.74
71529;SHT31;59350;51.520;5.988;2022-07-04T10:01:38;29.75;35.45
71529;SHT31;59350;51.520;5.988;2022-07-04T10:04:05;30.08;34.88
71529;SHT31;59350;51.520;5.988;2022-07-04T10:06:32;29.24;35.70
71529;SHT31;59350;51.520;5.988;2022-07-04T10:09:27;28.92;35.75
71529;SHT31;59350;51.520;5.988;2022-07-04T10:11:53;27.66;37.52
71529;SHT31;59350;51.520;5.988;2022-07-04T10:14:19;27.10;39.36
71529;SHT31;59350;51.520;5.988;2022-07-04T10:16:44;26.58;40.47
71529;SHT31;59350;51.520;5.988;2022-07-04T10:19:09;26.89;39.27
71529;SHT31;59350;51.520;5.988;2022-07-04T10:21:35;25.62;40.98
71529;SHT31;59350;51.520;5.988;2022-07-04T10:24:01;26.23;40.32
71529;SHT31;59350;51.520;5.988;2022-07-04T10:26:28;27.33;39.83
71529;SHT31;59350;51.520;5.988;2022-07-04T10:28:55;27.61;39.19
71529;SHT31;59350;51.520;5.988;2022-07-04T10:31:23;27.90;38.35
71529;SHT31;59350;51.520;5.988;2022-07-04T10:33:50;28.72;37.51
71529;SHT31;59350;51.520;5.988;2022-07-04T10:36:17;28.63;36.90
71529;SHT31;59350;51.520;5.988;2022-07-04T10:38:55;29.47;35.53
71529;SHT31;59350;51.520;5.988;2022-07-04T10:41:22;29.45;35.17
71529;SHT31;59350;51.520;5.988;2022-07-04T10:49:27;30.14;34.71
71529;SHT31;59350;51.520;5.988;2022-07-04T10:56:51;29.27;35.24
71529;SHT31;59350;51.520;5.988;2022-07-04T11:17:56;26.18;41.84
71529;SHT31;59350;51.520;5.988;2022-07-04T11:20:23;25.70;41.76
71529;SHT31;59350;51.520;5.988;2022-07-04T11:22:48;25.82;41.97
71529;SHT31;59350;51.520;5.988;2022-07-04T11:25:14;25.72;41.06
71529;SHT31;59350;51.520;5.988;2022-07-04T11:27:40;25.79;41.48
71529;SHT31;59350;51.520;5.988;2022-07-04T11:30:07;25.58;42.60
71529;SHT31;59350;51.520;5.988;2022-07-04T11:32:35;25.10;42.39
71529;SHT31;59350;51.520;5.988;2022-07-04T11:35:02;25.00;44.58
71529;SHT31;59350;51.520;5.988;2022-07-04T11:37:28;24.90;44.58
71529;SHT31;59350;51.520;5.988;2022-07-04T11:39:54;24.79;43.55
71529;SHT31;59350;51.520;5.988;2022-07-04T11:42:41;24.52;43.26
71529;SHT31;59350;51.520;5.988;2022-07-04T11:45:42;24.52;43.55
71529;SHT31;59350;51.520;5.988;2022-07-04T11:48:07;24.63;44.68
71529;SHT31;59350;51.520;5.988;2022-07-04T11:50:33;24.52;43.49
71529;SHT31;59350;51.520;5.988;2022-07-04T11:52:58;24.28;43.70
71529;SHT31;59350;51.520;5.988;2022-07-04T11:55:23;24.67;44.17
71529;SHT31;59350;51.520;5.988;2022-07-04T11:57:50;24.81;42.45
71529;SHT31;59350;51.520;5.988;2022-07-04T12:00:19;24.69;41.44
71529;SHT31;59350;51.520;5.988;2022-07-04T12:02:48;24.92;43.34
71529;SHT31;59350;51.520;5.988;2022-07-04T12:05:15;24.91;42.87
71529;SHT31;59350;51.520;5.988;2022-07-04T12:07:43;25.21;42.30
71529;SHT31;59350;51.520;5.988;2022-07-04T12:10:13;25.56;42.54
71529;SHT31;59350;51.520;5.988;2022-07-04T12:15:23;25.78;41.13
71529;SHT31;59350;51.520;5.988;2022-07-04T12:17:55;25.90;41.98
71529;SHT31;59350;51.520;5.988;2022-07-04T12:20:24;25.69;39.98
71529;SHT31;59350;51.520;5.988;2022-07-04T12:25:31;25.39;39.67
71529;SHT31;59350;51.520;5.988;2022-07-04T12:28:04;25.11;40.20
71529;SHT31;59350;51.520;5.988;2022-07-04T12:30:32;24.94;40.81
71529;SHT31;59350;51.520;5.988;2022-07-04T12:33:01;25.21;41.76
71529;SHT31;59350;51.520;5.988;2022-07-04T12:38:06;25.15;44.14
71529;SHT31;59350;51.520;5.988;2022-07-04T12:40:32;25.03;45.02
71529;SHT31;59350;51.520;5.988;2022-07-04T12:42:58;24.60;46.16
71529;SHT31;59350;51.520;5.988;2022-07-04T12:45:25;24.29;47.72
71529;SHT31;59350;51.520;5.988;2022-07-04T12:47:50;24.23;48.19
71529;SHT31;59350;51.520;5.988;2022-07-04T12:50:25;24.30;48.02
71529;SHT31;59350;51.520;5.988;2022-07-04T12:52:51;24.08;47.61
71529;SHT31;59350;51.520;5.988;2022-07-04T12:55:17;24.02;48.23
71529;SHT31;59350;51.520;5.988;2022-07-04T12:57:42;23.97;47.70
71529;SHT31;59350;51.520;5.988;2022-07-04T13:00:08;23.91;47.96
71529;SHT31;59350;51.520;5.988;2022-07-04T13:02:34;23.75;47.54
71529;SHT31;59350;51.520;5.988;2022-07-04T13:04:59;23.81;47.97
71529;SHT31;59350;51.520;5.988;2022-07-04T13:07:24;23.84;47.64
71529;SHT31;59350;51.520;5.988;2022-07-04T13:09:50;23.82;47.37
71529;SHT31;59350;51.520;5.988;2022-07-04T13:12:15;24.22;47.26
71529;SHT31;59350;51.520;5.988;2022-07-04T13:14:57;24.52;46.47
71529;SHT31;59350;51.520;5.988;2022-07-04T13:17:24;24.30;47.12
71529;SHT31;59350;51.520;5.988;2022-07-04T13:19:50;24.15;46.81
71529;SHT31;59350;51.520;5.988;2022-07-04T13:22:20;24.12;47.18
71529;SHT31;59350;51.520;5.988;2022-07-04T13:24:46;24.20;47.34
71529;SHT31;59350;51.520;5.988;2022-07-04T13:27:11;24.20;46.65
71529;SHT31;59350;51.520;5.988;2022-07-04T13:29:37;24.30;47.00
71529;SHT31;59350;51.520;5.988;2022-07-04T13:32:03;24.37;47.99
71529;SHT31;59350;51.520;5.988;2022-07-04T13:34:29;24.49;47.61
71529;SHT31;59350;51.520;5.988;2022-07-04T13:36:54;24.79;47.71
71529;SHT31;59350;51.520;5.988;2022-07-04T13:39:21;24.95;46.84
71529;SHT31;59350;51.520;5.988;2022-07-04T13:41:47;24.91;46.01
71529;SHT31;59350;51.520;5.988;2022-07-04T13:44:12;24.83;45.99
71529;SHT31;59350;51.520;5.988;2022-07-04T13:46:41;24.63;45.75
71529;SHT31;59350;51.520;5.988;2022-07-04T13:49:07;24.52;45.54
71529;SHT31;59350;51.520;5.988;2022-07-04T13:51:33;24.49;45.89
71529;SHT31;59350;51.520;5.988;2022-07-04T13:53:59;24.26;46.01
71529;SHT31;59350;51.520;5.988;2022-07-04T13:56:26;24.39;45.74
71529;SHT31;59350;51.520;5.988;2022-07-04T13:58:51;24.39;45.39
71529;SHT31;59350;51.520;5.988;2022-07-04T14:01:17;24.55;45.38
71529;SHT31;59350;51.520;5.988;2022-07-04T14:03:45;24.63;44.21
71529;SHT31;59350;51.520;5.988;2022-07-04T14:06:11;24.80;44.73
71529;SHT31;59350;51.520;5.988;2022-07-04T14:08:36;24.67;44.54
71529;SHT31;59350;51.520;5.988;2022-07-04T14:11:02;24.52;44.81
71529;SHT31;59350;51.520;5.988;2022-07-04T14:13:28;24.56;45.65
71529;SHT31;59350;51.520;5.988;2022-07-04T14:15:54;24.57;44.19
71529;SHT31;59350;51.520;5.988;2022-07-04T14:18:19;24.67;44.06
71529;SHT31;59350;51.520;5.988;2022-07-04T14:20:45;24.52;43.80
71529;SHT31;59350;51.520;5.988;2022-07-04T14:23:11;24.48;43.48
71529;SHT31;59350;51.520;5.988;2022-07-04T14:25:36;24.48;44.96
71529;SHT31;59350;51.520;5.988;2022-07-04T14:28:02;24.32;45.31
71529;SHT31;59350;51.520;5.988;2022-07-04T14:30:28;24.50;44.74
71529;SHT31;59350;51.520;5.988;2022-07-04T14:32:53;24.63;44.07
71529;SHT31;59350;51.520;5.988;2022-07-04T14:35:18;24.71;43.03
71529;SHT31;59350;51.520;5.988;2022-07-04T14:37:44;24.63;43.66
71529;SHT31;59350;51.520;5.988;2022-07-04T14:40:10;24.48;43.85
71529;SHT31;59350;51.520;5.988;2022-07-04T14:42:35;24.35;44.15
71529;SHT31;59350;51.520;5.988;2022-07-04T14:45:00;24.44;44.21
71529;SHT31;59350;51.520;5.988;2022-07-04T14:47:26;24.53;44.64
71529;SHT31;59350;51.520;5.988;2022-07-04T14:49:51;24.49;44.89
71529;SHT31;59350;51.520;5.988;2022-07-04T14:52:16;24.60;44.43
71529;SHT31;59350;51.520;5.988;2022-07-04T14:54:42;24.69;44.65
71529;SHT31;59350;51.520;5.988;2022-07-04T14:57:07;24.87;44.69
71529;SHT31;59350;51.520;5.988;2022-07-04T14:59:33;24.59;43.82
71529;SHT31;59350;51.520;5.988;2022-07-04T15:02:03;24.66;44.96
71529;SHT31;59350;51.520;5.988;2022-07-04T15:04:29;24.60;44.08
71529;SHT31;59350;51.520;5.988;2022-07-04T15:06:54;24.49;44.86
71529;SHT31;59350;51.520;5.988;2022-07-04T15:09:20;24.43;44.06
71529;SHT31;59350;51.520;5.988;2022-07-04T15:11:46;24.36;44.08
71529;SHT31;59350;51.520;5.988;2022-07-04T15:14:13;24.48;44.33
71529;SHT31;59350;51.520;5.988;2022-07-04T15:16:38;24.56;45.49
71529;SHT31;59350;51.520;5.988;2022-07-04T15:19:03;24.64;44.35
71529;SHT31;59350;51.520;5.988;2022-07-04T15:21:29;24.67;44.33
71529;SHT31;59350;51.520;5.988;2022-07-04T15:24:13;24.70;44.63
71529;SHT31;59350;51.520;5.988;2022-07-04T15:26:50;24.71;44.62
71529;SHT31;59350;51.520;5.988;2022-07-04T15:29:18;24.79;43.46
71529;SHT31;59350;51.520;5.988;2022-07-04T15:31:44;24.86;43.60
71529;SHT31;59350;51.520;5.988;2022-07-04T15:34:10;24.91;43.92
71529;SHT31;59350;51.520;5.988;2022-07-04T15:36:35;24.76;44.14
71529;SHT31;59350;51.520;5.988;2022-07-04T15:39:12;24.50;44.61
71529;SHT31;59350;51.520;5.988;2022-07-04T15:41:38;24.35;44.94
71529;SHT31;59350;51.520;5.988;2022-07-04T15:44:04;24.28;45.42
71529;SHT31;59350;51.520;5.988;2022-07-04T15:46:30;24.23;45.26
71529;SHT31;59350;51.520;5.988;2022-07-04T15:48:56;24.33;45.27
71529;SHT31;59350;51.520;5.988;2022-07-04T15:51:22;24.39;45.42
71529;SHT31;59350;51.520;5.988;2022-07-04T15:53:47;24.48;45.27
71529;SHT31;59350;51.520;5.988;2022-07-04T15:56:13;24.48;45.10
71529;SHT31;59350;51.520;5.988;2022-07-04T15:58:38;24.52;44.84
71529;SHT31;59350;51.520;5.988;2022-07-04T16:01:04;24.49;45.40
71529;SHT31;59350;51.520;5.988;2022-07-04T16:03:30;24.41;44.62
71529;SHT31;59350;51.520;5.988;2022-07-04T16:05:55;24.30;44.85
71529;SHT31;59350;51.520;5.988;2022-07-04T16:08:21;24.29;44.92
71529;SHT31;59350;51.520;5.988;2022-07-04T16:10:47;24.28;45.26
71529;SHT31;59350;51.520;5.988;2022-07-04T16:13:12;24.30;45.25
71529;SHT31;59350;51.520;5.988;2022-07-04T16:15:37;24.02;45.79
71529;SHT31;59350;51.520;5.988;2022-07-04T16:18:03;23.95;46.16
71529;SHT31;59350;51.520;5.988;2022-07-04T16:20:28;23.82;45.52
71529;SHT31;59350;51.520;5.988;2022-07-04T16:22:54;23.75;46.03
71529;SHT31;59350;51.520;5.988;2022-07-04T16:25:19;23.86;46.05
71529;SHT31;59350;51.520;5.988;2022-07-04T16:27:44;23.88;46.04
71529;SHT31;59350;51.520;5.988;2022-07-04T16:30:10;23.79;46.28
71529;SHT31;59350;51.520;5.988;2022-07-04T16:32:36;23.68;46.61
71529;SHT31;59350;51.520;5.988;2022-07-04T16:35:04;23.74;47.44
71529;SHT31;59350;51.520;5.988;2022-07-04T16:37:30;23.79;46.76
71529;SHT31;59350;51.520;5.988;2022-07-04T16:39:55;23.91;46.12
71529;SHT31;59350;51.520;5.988;2022-07-04T16:42:21;23.89;45.93
71529;SHT31;59350;51.520;5.988;2022-07-04T16:44:46;23.78;45.71
71529;SHT31;59350;51.520;5.988;2022-07-04T16:47:12;23.62;45.73
71529;SHT31;59350;51.520;5.988;2022-07-04T16:49:37;23.57;46.46
71529;SHT31;59350;51.520;5.988;2022-07-04T16:52:03;23.44;46.74
71529;SHT31;59350;51.520;5.988;2022-07-04T16:54:31;23.37;47.19
71529;SHT31;59350;51.520;5.988;2022-07-04T16:56:57;23.26;47.43
71529;SHT31;59350;51.520;5.988;2022-07-04T16:59:22;23.20;47.99
71529;SHT31;59350;51.520;5.988;2022-07-04T17:01:48;23.17;48.72
71529;SHT31;59350;51.520;5.988;2022-07-04T17:04:14;23.21;48.72
71529;SHT31;59350;51.520;5.988;2022-07-04T17:06:39;23.14;48.73
71529;SHT31;59350;51.520;5.988;2022-07-04T17:09:04;23.12;48.90
71529;SHT31;59350;51.520;5.988;2022-07-04T17:11:30;23.10;49.35
71529;SHT31;59350;51.520;5.988;2022-07-04T17:13:57;23.03;49.27
71529;SHT31;59350;51.520;5.988;2022-07-04T17:16:25;22.98;49.19
71529;SHT31;59350;51.520;5.988;2022-07-04T17:18:51;22.89;49.77
71529;SHT31;59350;51.520;5.988;2022-07-04T17:21:16;22.90;49.57
71529;SHT31;59350;51.520;5.988;2022-07-04T17:23:41;22.90;49.58
71529;SHT31;59350;51.520;5.988;2022-07-04T17:26:07;22.83;49.41
71529;SHT31;59350;51.520;5.988;2022-07-04T17:28:32;22.77;50.20
71529;SHT31;59350;51.520;5.988;2022-07-04T17:30:57;22.77;49.99
71529;SHT31;59350;51.520;5.988;2022-07-04T17:33:23;22.58;50.22
71529;SHT31;59350;51.520;5.988;2022-07-04T17:35:48;22.51;50.16
71529;SHT31;59350;51.520;5.988;2022-07-04T17:38:13;22.55;49.94
71529;SHT31;59350;51.520;5.988;2022-07-04T17:40:39;22.56;50.22
71529;SHT31;59350;51.520;5.988;2022-07-04T17:43:05;22.55;50.79
71529;SHT31;59350;51.520;5.988;2022-07-04T17:45:30;22.55;51.07
71529;SHT31;59350;51.520;5.988;2022-07-04T17:47:56;22.56;51.33
71529;SHT31;59350;51.520;5.988;2022-07-04T17:50:22;22.53;51.81
71529;SHT31;59350;51.520;5.988;2022-07-04T17:52:47;22.48;51.81
71529;SHT31;59350;51.520;5.988;2022-07-04T17:55:12;22.49;52.82
71529;SHT31;59350;51.520;5.988;2022-07-04T17:57:38;22.47;52.51
71529;SHT31;59350;51.520;5.988;2022-07-04T18:00:04;22.44;52.26
71529;SHT31;59350;51.520;5.988;2022-07-04T18:02:29;22.38;52.53
71529;SHT31;59350;51.520;5.988;2022-07-04T18:04:54;22.32;53.02
71529;SHT31;59350;51.520;5.988;2022-07-04T18:07:20;22.34;52.76
71529;SHT31;59350;51.520;5.988;2022-07-04T18:09:45;22.28;52.84
71529;SHT31;59350;51.520;5.988;2022-07-04T18:12:12;22.27;52.77
71529;SHT31;59350;51.520;5.988;2022-07-04T18:14:38;22.25;52.73
71529;SHT31;59350;51.520;5.988;2022-07-04T18:17:03;22.17;53.57
71529;SHT31;59350;51.520;5.988;2022-07-04T18:19:29;22.15;53.26
71529;SHT31;59350;51.520;5.988;2022-07-04T18:21:54;22.11;54.05
71529;SHT31;59350;51.520;5.988;2022-07-04T18:24:19;22.08;53.93
71529;SHT31;59350;51.520;5.988;2022-07-04T18:26:45;22.08;53.62
71529;SHT31;59350;51.520;5.988;2022-07-04T18:29:12;22.00;53.46
71529;SHT31;59350;51.520;5.988;2022-07-04T18:31:37;22.00;53.17
71529;SHT31;59350;51.520;5.988;2022-07-04T18:34:02;21.93;53.36
71529;SHT31;59350;51.520;5.988;2022-07-04T18:36:28;21.90;54.09
71529;SHT31;59350;51.520;5.988;2022-07-04T18:38:54;21.79;54.25
71529;SHT31;59350;51.520;5.988;2022-07-04T18:41:19;21.74;54.87
71529;SHT31;59350;51.520;5.988;2022-07-04T18:44:07;21.73;54.88
71529;SHT31;59350;51.520;5.988;2022-07-04T18:46:33;21.73;54.53
71529;SHT31;59350;51.520;5.988;2022-07-04T18:48:58;21.69;54.78
71529;SHT31;59350;51.520;5.988;2022-07-04T18:51:23;21.62;55.06
71529;SHT31;59350;51.520;5.988;2022-07-04T18:53:50;21.63;55.20
71529;SHT31;59350;51.520;5.988;2022-07-04T18:56:16;21.56;55.31
71529;SHT31;59350;51.520;5.988;2022-07-04T18:58:41;21.56;55.29
71529;SHT31;59350;51.520;5.988;2022-07-04T19:01:06;21.54;55.74
71529;SHT31;59350;51.520;5.988;2022-07-04T19:03:32;21.46;55.83
71529;SHT31;59350;51.520;5.988;2022-07-04T19:06:00;21.33;55.55
71529;SHT31;59350;51.520;5.988;2022-07-04T19:08:27;21.29;55.90
71529;SHT31;59350;51.520;5.988;2022-07-04T19:10:52;21.22;55.93
71529;SHT31;59350;51.520;5.988;2022-07-04T19:13:18;21.16;55.92
71529;SHT31;59350;51.520;5.988;2022-07-04T19:15:47;21.12;56.56
71529;SHT31;59350;51.520;5.988;2022-07-04T19:18:13;21.04;56.02
71529;SHT31;59350;51.520;5.988;2022-07-04T19:20:39;21.01;56.15
71529;SHT31;59350;51.520;5.988;2022-07-04T19:23:09;20.96;56.41
71529;SHT31;59350;51.520;5.988;2022-07-04T19:25:35;20.92;56.75
71529;SHT31;59350;51.520;5.988;2022-07-04T19:28:01;20.85;57.29
71529;SHT31;59350;51.520;5.988;2022-07-04T19:30:26;20.78;57.46
71529;SHT31;59350;51.520;5.988;2022-07-04T19:32:52;20.68;57.35
71529;SHT31;59350;51.520;5.988;2022-07-04T19:35:17;20.65;58.05
71529;SHT31;59350;51.520;5.988;2022-07-04T19:37:43;20.58;58.24
71529;SHT31;59350;51.520;5.988;2022-07-04T19:40:09;20.51;58.38
71529;SHT31;59350;51.520;5.988;2022-07-04T19:42:36;20.47;58.18
71529;SHT31;59350;51.520;5.988;2022-07-04T19:45:02;20.37;59.06
71529;SHT31;59350;51.520;5.988;2022-07-04T19:47:27;20.32;57.85
71529;SHT31;59350;51.520;5.988;2022-07-04T19:49:54;20.29;58.20
71529;SHT31;59350;51.520;5.988;2022-07-04T19:52:23;20.20;58.12
71529;SHT31;59350;51.520;5.988;2022-07-04T19:55:07;20.16;58.14
71529;SHT31;59350;51.520;5.988;2022-07-04T19:57:34;20.10;58.39
71529;SHT31;59350;51.520;5.988;2022-07-04T20:00:01;20.00;58.79
71529;SHT31;59350;51.520;5.988;2022-07-04T20:02:27;19.95;59.27
71529;SHT31;59350;51.520;5.988;2022-07-04T20:04:53;19.85;59.23
71529;SHT31;59350;51.520;5.988;2022-07-04T20:07:18;19.76;59.17
71529;SHT31;59350;51.520;5.988;2022-07-04T20:09:44;19.65;59.62
71529;SHT31;59350;51.520;5.988;2022-07-04T20:12:10;19.57;59.82
71529;SHT31;59350;51.520;5.988;2022-07-04T20:14:36;19.54;60.00
71529;SHT31;59350;51.520;5.988;2022-07-04T20:17:01;19.50;60.52
71529;SHT31;59350;51.520;5.988;2022-07-04T20:19:27;19.45;60.23
71529;SHT31;59350;51.520;5.988;2022-07-04T20:21:53;19.41;61.00
71529;SHT31;59350;51.520;5.988;2022-07-04T20:24:18;19.34;60.47